sensor_id;sensor_type;location;lat;lon;timestamp;P1;durP1;ratioP1;P2;durP2;ratioP2
13279;SDS011;6708;49.814;8.652;2023-05-07T00:01:14;1.70;;;1.60;;
13279;SDS011;6708;49.814;8.652;2023-05-07T00:03:42;2.10;;;1.90;;
13279;SDS011;6708;49.814;8.652;2023-05-07T00:06:10;1.50;;;1.40;;
13279;SDS011;6708;49.814;8.652;2023-05-07T00:08:39;2.47;;;1.40;;
13279;SDS011;6708;49.814;8.652;2023-05-07T00:11:07;1.77;;;1.67;;
13279;SDS011;6708;49.814;8.652;2023-05-07T00:13:39;1.60;;;1.47;;
13279;SDS011;6708;49.814;8.652;2023-05-07T00:16:07;1.27;;;1.20;;
13279;SDS011;6708;49.814;8.652;2023-05-07T00:18:36;1.43;;;1.37;;
13279;SDS011;6708;49.814;8.652;2023-05-07T00:21:04;1.70;;;1.60;;
13279;SDS011;6708;49.814;8.652;2023-05-07T00:23:33;1.63;;;1.53;;
13279;SDS011;6708;49.814;8.652;2023-05-07T00:26:02;1.53;;;1.50;;
13279;SDS011;6708;49.814;8.652;2023-05-07T00:28:30;3.20;;;1.57;;
13279;SDS011;6708;49.814;8.652;2023-05-07T00:31:01;2.77;;;1.30;;
13279;SDS011;6708;49.814;8.652;2023-05-07T00:33:29;1.50;;;1.40;;
13279;SDS011;6708;49.814;8.652;2023-05-07T00:35:58;1.70;;;1.60;;
13279;SDS011;6708;49.814;8.652;2023-05-07T00:38:27;1.70;;;1.70;;
13279;SDS011;6708;49.814;8.652;2023-05-07T00:40:55;3.40;;;1.90;;
13279;SDS011;6708;49.814;8.652;2023-05-07T00:43:24;1.40;;;1.30;;
13279;SDS011;6708;49.814;8.652;2023-05-07T00:45:53;1.70;;;1.60;;
13279;SDS011;6708;49.814;8.652;2023-05-07T00:48:24;1.57;;;1.47;;
13279;SDS011;6708;49.814;8.652;2023-05-07T00:50:53;3.53;;;1.50;;
13279;SDS011;6708;49.814;8.652;2023-05-07T00:53:21;1.33;;;1.33;;
13279;SDS011;6708;49.814;8.652;2023-05-07T00:55:50;3.70;;;1.30;;
13279;SDS011;6708;49.814;8.652;2023-05-07T00:58:19;1.90;;;1.63;;
13279;SDS011;6708;49.814;8.652;2023-05-07T01:00:48;1.20;;;1.10;;
13279;SDS011;6708;49.814;8.652;2023-05-07T01:03:16;1.70;;;1.60;;
13279;SDS011;6708;49.814;8.652;2023-05-07T01:05:48;1.40;;;1.30;;
13279;SDS011;6708;49.814;8.652;2023-05-07T01:08:17;1.53;;;1.43;;
13279;SDS011;6708;49.814;8.652;2023-05-07T01:10:46;1.60;;;1.50;;
13279;SDS011;6708;49.814;8.652;2023-05-07T01:13:15;1.47;;;1.33;;
13279;SDS011;6708;49.814;8.652;2023-05-07T01:15:43;1.70;;;1.50;;
13279;SDS011;6708;49.814;8.652;2023-05-07T01:18:12;2.73;;;1.70;;
13279;SDS011;6708;49.814;8.652;2023-05-07T01:20:41;1.50;;;1.50;;
13279;SDS011;6708;49.814;8.652;2023-05-07T01:23:12;1.57;;;1.57;;
13279;SDS011;6708;49.814;8.652;2023-05-07T01:25:41;2.17;;;1.77;;
13279;SDS011;6708;49.814;8.652;2023-05-07T01:28:10;1.77;;;1.67;;
13279;SDS011;6708;49.814;8.652;2023-05-07T01:30:41;1.60;;;1.50;;
13279;SDS011;6708;49.814;8.652;2023-05-07T01:33:12;3.43;;;1.60;;
13279;SDS011;6708;49.814;8.652;2023-05-07T01:35:43;1.60;;;1.50;;
13279;SDS011;6708;49.814;8.652;2023-05-07T01:38:16;1.20;;;1.20;;
13279;SDS011;6708;49.814;8.652;2023-05-07T01:40:45;1.30;;;1.30;;
13279;SDS011;6708;49.814;8.652;2023-05-07T01:43:13;2.37;;;1.60;;
13279;SDS011;6708;49.814;8.652;2023-05-07T01:45:42;2.10;;;1.60;;
13279;SDS011;6708;49.814;8.652;2023-05-07T01:48:11;1.77;;;1.37;;
13279;SDS011;6708;49.814;8.652;2023-05-07T01:50:41;1.40;;;1.30;;
13279;SDS011;6708;49.814;8.652;2023-05-07T01:53:09;1.20;;;1.20;;
13279;SDS011;6708;49.814;8.652;2023-05-07T01:55:40;1.40;;;1.30;;
13279;SDS011;6708;49.814;8.652;2023-05-07T01:58:09;1.50;;;1.40;;
13279;SDS011;6708;49.814;8.652;2023-05-07T02:00:37;1.60;;;1.50;;
13279;SDS011;6708;49.814;8.652;2023-05-07T02:03:06;1.57;;;1.37;;
13279;SDS011;6708;49.814;8.652;2023-05-07T02:05:42;2.20;;;1.40;;
13279;SDS011;6708;49.814;8.652;2023-05-07T02:08:18;1.30;;;1.30;;
13279;SDS011;6708;49.814;8.652;2023-05-07T02:10:49;2.17;;;1.20;;
13279;SDS011;6708;49.814;8.652;2023-05-07T02:13:19;1.27;;;1.27;;
13279;SDS011;6708;49.814;8.652;2023-05-07T02:15:49;1.33;;;1.30;;
13279;SDS011;6708;49.814;8.652;2023-05-07T02:18:19;1.30;;;1.20;;
13279;SDS011;6708;49.814;8.652;2023-05-07T02:20:48;1.43;;;1.43;;
13279;SDS011;6708;49.814;8.652;2023-05-07T02:23:16;1.37;;;1.30;;
13279;SDS011;6708;49.814;8.652;2023-05-07T02:25:45;1.23;;;1.23;;
13279;SDS011;6708;49.814;8.652;2023-05-07T02:28:16;2.47;;;1.00;;
13279;SDS011;6708;49.814;8.652;2023-05-07T02:31:11;1.50;;;1.37;;
13279;SDS011;6708;49.814;8.652;2023-05-07T02:33:39;1.10;;;1.10;;
13279;SDS011;6708;49.814;8.652;2023-05-07T02:36:09;1.43;;;1.33;;
13279;SDS011;6708;49.814;8.652;2023-05-07T02:38:49;1.83;;;1.13;;
13279;SDS011;6708;49.814;8.652;2023-05-07T02:41:17;1.47;;;1.37;;
13279;SDS011;6708;49.814;8.652;2023-05-07T02:43:48;1.20;;;1.20;;
13279;SDS011;6708;49.814;8.652;2023-05-07T02:46:16;2.80;;;1.10;;
13279;SDS011;6708;49.814;8.652;2023-05-07T02:48:50;2.77;;;1.10;;
13279;SDS011;6708;49.814;8.652;2023-05-07T02:51:19;1.23;;;1.10;;
13279;SDS011;6708;49.814;8.652;2023-05-07T02:53:50;1.47;;;1.17;;
13279;SDS011;6708;49.814;8.652;2023-05-07T02:56:20;1.80;;;1.00;;
13279;SDS011;6708;49.814;8.652;2023-05-07T02:58:51;1.40;;;1.30;;
13279;SDS011;6708;49.814;8.652;2023-05-07T03:01:21;1.03;;;0.93;;
13279;SDS011;6708;49.814;8.652;2023-05-07T03:03:56;2.57;;;1.30;;
13279;SDS011;6708;49.814;8.652;2023-05-07T03:06:25;1.10;;;1.10;;
13279;SDS011;6708;49.814;8.652;2023-05-07T03:08:53;1.10;;;1.10;;
13279;SDS011;6708;49.814;8.652;2023-05-07T03:11:22;0.97;;;0.97;;
13279;SDS011;6708;49.814;8.652;2023-05-07T03:13:53;2.00;;;1.40;;
13279;SDS011;6708;49.814;8.652;2023-05-07T03:16:21;1.20;;;1.20;;
13279;SDS011;6708;49.814;8.652;2023-05-07T03:18:50;1.03;;;1.03;;
13279;SDS011;6708;49.814;8.652;2023-05-07T03:21:19;0.97;;;0.97;;
13279;SDS011;6708;49.814;8.652;2023-05-07T03:23:48;0.90;;;0.87;;
13279;SDS011;6708;49.814;8.652;2023-05-07T03:26:16;1.00;;;1.00;;
13279;SDS011;6708;49.814;8.652;2023-05-07T03:28:45;1.00;;;1.00;;
13279;SDS011;6708;49.814;8.652;2023-05-07T03:31:18;1.00;;;1.00;;
13279;SDS011;6708;49.814;8.652;2023-05-07T03:33:50;1.33;;;1.10;;
13279;SDS011;6708;49.814;8.652;2023-05-07T03:36:19;1.23;;;1.07;;
13279;SDS011;6708;49.814;8.652;2023-05-07T03:38:48;2.57;;;1.00;;
13279;SDS011;6708;49.814;8.652;2023-05-07T03:41:20;1.57;;;1.20;;
13279;SDS011;6708;49.814;8.652;2023-05-07T03:43:48;0.83;;;0.83;;
13279;SDS011;6708;49.814;8.652;2023-05-07T03:46:19;1.20;;;1.10;;
13279;SDS011;6708;49.814;8.652;2023-05-07T03:48:48;1.23;;;1.20;;
13279;SDS011;6708;49.814;8.652;2023-05-07T03:51:18;1.30;;;1.20;;
13279;SDS011;6708;49.814;8.652;2023-05-07T03:53:47;1.10;;;1.10;;
13279;SDS011;6708;49.814;8.652;2023-05-07T03:56:18;1.23;;;1.23;;
13279;SDS011;6708;49.814;8.652;2023-05-07T03:58:52;1.10;;;1.10;;
13279;SDS011;6708;49.814;8.652;2023-05-07T04:01:23;1.03;;;1.03;;
13279;SDS011;6708;49.814;8.652;2023-05-07T04:03:52;1.37;;;1.27;;
13279;SDS011;6708;49.814;8.652;2023-05-07T04:06:21;0.80;;;0.80;;
13279;SDS011;6708;49.814;8.652;2023-05-07T04:08:49;1.33;;;1.03;;
13279;SDS011;6708;49.814;8.652;2023-05-07T04:11:18;2.30;;;1.20;;
13279;SDS011;6708;49.814;8.652;2023-05-07T04:13:46;15.77;;;1.60;;
13279;SDS011;6708;49.814;8.652;2023-05-07T04:16:19;0.90;;;0.90;;
13279;SDS011;6708;49.814;8.652;2023-05-07T04:18:50;1.30;;;1.13;;
13279;SDS011;6708;49.814;8.652;2023-05-07T04:21:19;3.80;;;1.00;;
13279;SDS011;6708;49.814;8.652;2023-05-07T04:23:50;1.03;;;0.90;;
13279;SDS011;6708;49.814;8.652;2023-05-07T04:26:18;1.00;;;1.00;;
13279;SDS011;6708;49.814;8.652;2023-05-07T04:28:47;1.10;;;1.10;;
13279;SDS011;6708;49.814;8.652;2023-05-07T04:31:15;1.03;;;1.03;;
13279;SDS011;6708;49.814;8.652;2023-05-07T04:33:51;1.00;;;1.00;;
13279;SDS011;6708;49.814;8.652;2023-05-07T04:36:20;1.00;;;1.00;;
13279;SDS011;6708;49.814;8.652;2023-05-07T04:38:56;1.10;;;1.10;;
13279;SDS011;6708;49.814;8.652;2023-05-07T04:41:24;1.10;;;0.87;;
13279;SDS011;6708;49.814;8.652;2023-05-07T04:43:53;0.90;;;0.90;;
13279;SDS011;6708;49.814;8.652;2023-05-07T04:46:23;1.07;;;1.07;;
13279;SDS011;6708;49.814;8.652;2023-05-07T04:48:57;1.60;;;1.23;;
13279;SDS011;6708;49.814;8.652;2023-05-07T04:51:26;1.10;;;1.10;;
13279;SDS011;6708;49.814;8.652;2023-05-07T04:53:54;1.50;;;1.40;;
13279;SDS011;6708;49.814;8.652;2023-05-07T04:56:23;1.30;;;1.30;;
13279;SDS011;6708;49.814;8.652;2023-05-07T04:58:52;1.10;;;1.10;;
13279;SDS011;6708;49.814;8.652;2023-05-07T05:01:21;1.10;;;1.10;;
13279;SDS011;6708;49.814;8.652;2023-05-07T05:03:49;1.37;;;1.37;;
13279;SDS011;6708;49.814;8.652;2023-05-07T05:06:21;2.37;;;1.93;;
13279;SDS011;6708;49.814;8.652;2023-05-07T05:08:50;4.30;;;1.30;;
13279;SDS011;6708;49.814;8.652;2023-05-07T05:11:20;1.30;;;1.20;;
13279;SDS011;6708;49.814;8.652;2023-05-07T05:13:49;1.40;;;1.40;;
13279;SDS011;6708;49.814;8.652;2023-05-07T05:16:19;0.90;;;0.90;;
13279;SDS011;6708;49.814;8.652;2023-05-07T05:18:48;0.80;;;0.80;;
13279;SDS011;6708;49.814;8.652;2023-05-07T05:21:20;0.80;;;0.80;;
13279;SDS011;6708;49.814;8.652;2023-05-07T05:23:52;1.00;;;1.00;;
13279;SDS011;6708;49.814;8.652;2023-05-07T05:26:23;0.87;;;0.87;;
13279;SDS011;6708;49.814;8.652;2023-05-07T05:28:52;1.50;;;1.40;;
13279;SDS011;6708;49.814;8.652;2023-05-07T05:31:23;2.10;;;1.70;;
13279;SDS011;6708;49.814;8.652;2023-05-07T05:33:51;1.37;;;1.37;;
13279;SDS011;6708;49.814;8.652;2023-05-07T05:36:22;1.63;;;1.53;;
13279;SDS011;6708;49.814;8.652;2023-05-07T05:38:53;1.67;;;0.90;;
13279;SDS011;6708;49.814;8.652;2023-05-07T05:41:23;0.80;;;0.80;;
13279;SDS011;6708;49.814;8.652;2023-05-07T05:43:52;1.60;;;1.10;;
13279;SDS011;6708;49.814;8.652;2023-05-07T05:46:21;0.80;;;0.80;;
13279;SDS011;6708;49.814;8.652;2023-05-07T05:48:50;1.33;;;1.23;;
13279;SDS011;6708;49.814;8.652;2023-05-07T05:51:18;1.20;;;1.10;;
13279;SDS011;6708;49.814;8.652;2023-05-07T05:53:51;1.53;;;1.10;;
13279;SDS011;6708;49.814;8.652;2023-05-07T05:56:20;1.53;;;1.43;;
13279;SDS011;6708;49.814;8.652;2023-05-07T05:58:48;1.07;;;1.07;;
13279;SDS011;6708;49.814;8.652;2023-05-07T06:01:17;1.10;;;1.07;;
13279;SDS011;6708;49.814;8.652;2023-05-07T06:03:48;1.53;;;1.43;;
13279;SDS011;6708;49.814;8.652;2023-05-07T06:06:16;1.17;;;1.17;;
13279;SDS011;6708;49.814;8.652;2023-05-07T06:08:45;1.40;;;1.33;;
13279;SDS011;6708;49.814;8.652;2023-05-07T06:11:22;3.70;;;1.30;;
13279;SDS011;6708;49.814;8.652;2023-05-07T06:13:50;1.80;;;1.13;;
13279;SDS011;6708;49.814;8.652;2023-05-07T06:16:19;1.00;;;1.00;;
13279;SDS011;6708;49.814;8.652;2023-05-07T06:18:48;1.40;;;1.40;;
13279;SDS011;6708;49.814;8.652;2023-05-07T06:21:16;1.50;;;1.40;;
13279;SDS011;6708;49.814;8.652;2023-05-07T06:23:44;1.03;;;1.03;;
13279;SDS011;6708;49.814;8.652;2023-05-07T06:26:13;1.37;;;1.30;;
13279;SDS011;6708;49.814;8.652;2023-05-07T06:28:48;1.07;;;1.07;;
13279;SDS011;6708;49.814;8.652;2023-05-07T06:31:17;1.20;;;1.20;;
13279;SDS011;6708;49.814;8.652;2023-05-07T06:33:54;1.50;;;1.40;;
13279;SDS011;6708;49.814;8.652;2023-05-07T06:36:28;1.07;;;1.00;;
13279;SDS011;6708;49.814;8.652;2023-05-07T06:38:59;3.70;;;1.80;;
13279;SDS011;6708;49.814;8.652;2023-05-07T06:41:27;3.13;;;1.50;;
13279;SDS011;6708;49.814;8.652;2023-05-07T06:44:03;1.60;;;1.23;;
13279;SDS011;6708;49.814;8.652;2023-05-07T06:46:42;1.23;;;1.23;;
13279;SDS011;6708;49.814;8.652;2023-05-07T06:49:12;1.83;;;1.53;;
13279;SDS011;6708;49.814;8.652;2023-05-07T06:51:41;1.30;;;1.30;;
13279;SDS011;6708;49.814;8.652;2023-05-07T06:54:10;1.50;;;1.23;;
13279;SDS011;6708;49.814;8.652;2023-05-07T06:56:39;2.70;;;1.60;;
13279;SDS011;6708;49.814;8.652;2023-05-07T06:59:11;1.50;;;1.30;;
13279;SDS011;6708;49.814;8.652;2023-05-07T07:01:40;2.67;;;1.63;;
13279;SDS011;6708;49.814;8.652;2023-05-07T07:04:10;1.77;;;1.67;;
13279;SDS011;6708;49.814;8.652;2023-05-07T07:06:40;1.10;;;1.10;;
13279;SDS011;6708;49.814;8.652;2023-05-07T07:09:11;1.23;;;1.23;;
13279;SDS011;6708;49.814;8.652;2023-05-07T07:11:40;1.33;;;1.33;;
13279;SDS011;6708;49.814;8.652;2023-05-07T07:14:11;1.47;;;1.37;;
13279;SDS011;6708;49.814;8.652;2023-05-07T07:16:45;1.70;;;1.60;;
13279;SDS011;6708;49.814;8.652;2023-05-07T07:19:16;2.30;;;1.70;;
13279;SDS011;6708;49.814;8.652;2023-05-07T07:21:47;1.70;;;1.33;;
13279;SDS011;6708;49.814;8.652;2023-05-07T07:24:15;1.53;;;1.43;;
13279;SDS011;6708;49.814;8.652;2023-05-07T07:26:47;1.60;;;1.50;;
13279;SDS011;6708;49.814;8.652;2023-05-07T07:29:20;4.23;;;1.60;;
13279;SDS011;6708;49.814;8.652;2023-05-07T07:31:50;1.33;;;1.27;;
13279;SDS011;6708;49.814;8.652;2023-05-07T07:34:20;1.60;;;1.50;;
13279;SDS011;6708;49.814;8.652;2023-05-07T07:36:49;1.43;;;1.27;;
13279;SDS011;6708;49.814;8.652;2023-05-07T07:39:18;3.63;;;1.37;;
13279;SDS011;6708;49.814;8.652;2023-05-07T07:41:49;1.63;;;1.60;;
13279;SDS011;6708;49.814;8.652;2023-05-07T07:44:22;2.47;;;1.77;;
13279;SDS011;6708;49.814;8.652;2023-05-07T07:46:56;1.70;;;1.60;;
13279;SDS011;6708;49.814;8.652;2023-05-07T07:49:25;1.77;;;1.67;;
13279;SDS011;6708;49.814;8.652;2023-05-07T07:51:56;1.77;;;1.77;;
13279;SDS011;6708;49.814;8.652;2023-05-07T07:54:26;1.87;;;1.33;;
13279;SDS011;6708;49.814;8.652;2023-05-07T07:56:54;1.87;;;1.77;;
13279;SDS011;6708;49.814;8.652;2023-05-07T07:59:26;1.50;;;1.50;;
13279;SDS011;6708;49.814;8.652;2023-05-07T08:01:54;1.73;;;1.63;;
13279;SDS011;6708;49.814;8.652;2023-05-07T08:04:25;1.67;;;1.57;;
13279;SDS011;6708;49.814;8.652;2023-05-07T08:06:55;1.50;;;1.40;;
13279;SDS011;6708;49.814;8.652;2023-05-07T08:09:24;1.80;;;1.70;;
13279;SDS011;6708;49.814;8.652;2023-05-07T08:11:53;1.67;;;1.63;;
13279;SDS011;6708;49.814;8.652;2023-05-07T08:14:22;1.97;;;1.80;;
13279;SDS011;6708;49.814;8.652;2023-05-07T08:16:53;1.63;;;1.60;;
13279;SDS011;6708;49.814;8.652;2023-05-07T08:19:22;2.20;;;2.10;;
13279;SDS011;6708;49.814;8.652;2023-05-07T08:21:50;2.00;;;1.90;;
13279;SDS011;6708;49.814;8.652;2023-05-07T08:24:21;1.37;;;1.37;;
13279;SDS011;6708;49.814;8.652;2023-05-07T08:26:50;2.00;;;1.37;;
13279;SDS011;6708;49.814;8.652;2023-05-07T08:29:19;1.97;;;1.87;;
13279;SDS011;6708;49.814;8.652;2023-05-07T08:31:47;2.20;;;2.00;;
13279;SDS011;6708;49.814;8.652;2023-05-07T08:34:18;2.00;;;1.90;;
13279;SDS011;6708;49.814;8.652;2023-05-07T08:36:47;4.30;;;2.30;;
13279;SDS011;6708;49.814;8.652;2023-05-07T08:39:19;2.30;;;2.20;;
13279;SDS011;6708;49.814;8.652;2023-05-07T08:41:50;2.10;;;2.00;;
13279;SDS011;6708;49.814;8.652;2023-05-07T08:44:20;1.90;;;1.90;;
13279;SDS011;6708;49.814;8.652;2023-05-07T08:46:50;1.97;;;1.87;;
13279;SDS011;6708;49.814;8.652;2023-05-07T08:49:23;2.03;;;1.93;;
13279;SDS011;6708;49.814;8.652;2023-05-07T08:51:51;1.93;;;1.83;;
13279;SDS011;6708;49.814;8.652;2023-05-07T08:54:21;2.00;;;1.90;;
13279;SDS011;6708;49.814;8.652;2023-05-07T08:56:50;1.80;;;1.70;;
13279;SDS011;6708;49.814;8.652;2023-05-07T08:59:19;3.07;;;1.80;;
13279;SDS011;6708;49.814;8.652;2023-05-07T09:01:47;2.87;;;1.70;;
13279;SDS011;6708;49.814;8.652;2023-05-07T09:04:16;4.93;;;1.93;;
13279;SDS011;6708;49.814;8.652;2023-05-07T09:06:48;2.77;;;2.30;;
13279;SDS011;6708;49.814;8.652;2023-05-07T09:09:17;2.30;;;2.20;;
13279;SDS011;6708;49.814;8.652;2023-05-07T09:11:47;2.57;;;2.17;;
13279;SDS011;6708;49.814;8.652;2023-05-07T09:14:18;2.03;;;1.87;;
13279;SDS011;6708;49.814;8.652;2023-05-07T09:16:51;2.13;;;2.03;;
13279;SDS011;6708;49.814;8.652;2023-05-07T09:19:22;3.47;;;1.90;;
13279;SDS011;6708;49.814;8.652;2023-05-07T09:22:00;2.53;;;2.30;;
13279;SDS011;6708;49.814;8.652;2023-05-07T09:24:36;2.07;;;1.97;;
13279;SDS011;6708;49.814;8.652;2023-05-07T09:27:08;4.17;;;2.07;;
13279;SDS011;6708;49.814;8.652;2023-05-07T09:29:39;2.23;;;1.77;;
13279;SDS011;6708;49.814;8.652;2023-05-07T09:32:07;1.60;;;1.50;;
13279;SDS011;6708;49.814;8.652;2023-05-07T09:34:36;2.13;;;1.80;;
13279;SDS011;6708;49.814;8.652;2023-05-07T09:37:08;2.13;;;2.03;;
13279;SDS011;6708;49.814;8.652;2023-05-07T09:39:40;2.43;;;1.93;;
13279;SDS011;6708;49.814;8.652;2023-05-07T09:42:11;1.80;;;1.80;;
13279;SDS011;6708;49.814;8.652;2023-05-07T09:44:40;2.00;;;1.90;;
13279;SDS011;6708;49.814;8.652;2023-05-07T09:47:13;2.03;;;1.93;;
13279;SDS011;6708;49.814;8.652;2023-05-07T09:49:49;2.20;;;2.07;;
13279;SDS011;6708;49.814;8.652;2023-05-07T09:52:22;2.27;;;2.17;;
13279;SDS011;6708;49.814;8.652;2023-05-07T09:54:54;2.73;;;2.63;;
13279;SDS011;6708;49.814;8.652;2023-05-07T09:57:26;2.63;;;1.80;;
13279;SDS011;6708;49.814;8.652;2023-05-07T09:59:59;2.90;;;2.00;;
13279;SDS011;6708;49.814;8.652;2023-05-07T10:02:32;3.40;;;2.23;;
13279;SDS011;6708;49.814;8.652;2023-05-07T10:05:03;1.97;;;1.87;;
13279;SDS011;6708;49.814;8.652;2023-05-07T10:07:36;2.23;;;2.03;;
13279;SDS011;6708;49.814;8.652;2023-05-07T10:10:08;1.77;;;1.77;;
13279;SDS011;6708;49.814;8.652;2023-05-07T10:12:41;1.70;;;1.70;;
13279;SDS011;6708;49.814;8.652;2023-05-07T10:15:15;1.83;;;1.73;;
13279;SDS011;6708;49.814;8.652;2023-05-07T10:17:48;2.50;;;2.37;;
13279;SDS011;6708;49.814;8.652;2023-05-07T10:20:17;1.90;;;1.80;;
13279;SDS011;6708;49.814;8.652;2023-05-07T10:22:49;2.00;;;1.90;;
13279;SDS011;6708;49.814;8.652;2023-05-07T10:25:26;1.83;;;1.73;;
13279;SDS011;6708;49.814;8.652;2023-05-07T10:28:03;4.23;;;2.13;;
13279;SDS011;6708;49.814;8.652;2023-05-07T10:30:39;2.30;;;2.10;;
13279;SDS011;6708;49.814;8.652;2023-05-07T10:33:13;4.80;;;2.00;;
13279;SDS011;6708;49.814;8.652;2023-05-07T10:35:44;2.10;;;2.00;;
13279;SDS011;6708;49.814;8.652;2023-05-07T10:38:17;1.70;;;1.70;;
13279;SDS011;6708;49.814;8.652;2023-05-07T10:40:46;2.17;;;2.07;;
13279;SDS011;6708;49.814;8.652;2023-05-07T10:43:16;2.23;;;2.13;;
13279;SDS011;6708;49.814;8.652;2023-05-07T10:55:18;2.23;;;2.13;;
13279;SDS011;6708;49.814;8.652;2023-05-07T11:00:57;2.30;;;2.20;;
13279;SDS011;6708;49.814;8.652;2023-05-07T11:03:33;2.20;;;2.07;;
13279;SDS011;6708;49.814;8.652;2023-05-07T11:06:08;2.20;;;2.10;;
13279;SDS011;6708;49.814;8.652;2023-05-07T11:08:59;2.33;;;2.23;;
13279;SDS011;6708;49.814;8.652;2023-05-07T11:11:48;2.13;;;2.03;;
13279;SDS011;6708;49.814;8.652;2023-05-07T11:14:44;2.50;;;2.30;;
13279;SDS011;6708;49.814;8.652;2023-05-07T11:17:22;1.80;;;1.70;;
13279;SDS011;6708;49.814;8.652;2023-05-07T11:19:59;1.97;;;1.87;;
13279;SDS011;6708;49.814;8.652;2023-05-07T11:22:38;1.92;;;1.83;;
13279;SDS011;6708;49.814;8.652;2023-05-07T11:25:19;3.20;;;2.33;;
13279;SDS011;6708;49.814;8.652;2023-05-07T11:27:57;1.60;;;1.50;;
13279;SDS011;6708;49.814;8.652;2023-05-07T11:30:35;2.38;;;1.92;;
13279;SDS011;6708;49.814;8.652;2023-05-07T11:33:08;2.03;;;1.92;;
13279;SDS011;6708;49.814;8.652;2023-05-07T11:35:38;1.88;;;1.77;;
13279;SDS011;6708;49.814;8.652;2023-05-07T11:38:11;2.03;;;1.88;;
13279;SDS011;6708;49.814;8.652;2023-05-07T11:40:48;2.50;;;1.65;;
13279;SDS011;6708;49.814;8.652;2023-05-07T11:43:20;1.77;;;1.67;;
13279;SDS011;6708;49.814;8.652;2023-05-07T11:45:49;1.73;;;1.63;;
13279;SDS011;6708;49.814;8.652;2023-05-07T11:48:18;1.83;;;1.73;;
13279;SDS011;6708;49.814;8.652;2023-05-07T11:50:49;1.83;;;1.73;;
13279;SDS011;6708;49.814;8.652;2023-05-07T11:53:19;1.42;;;1.33;;
13279;SDS011;6708;49.814;8.652;2023-05-07T11:55:48;1.73;;;1.63;;
13279;SDS011;6708;49.814;8.652;2023-05-07T11:58:23;1.90;;;1.80;;
13279;SDS011;6708;49.814;8.652;2023-05-07T12:00:52;1.88;;;1.77;;
13279;SDS011;6708;49.814;8.652;2023-05-07T12:03:21;1.50;;;1.50;;
13279;SDS011;6708;49.814;8.652;2023-05-07T12:05:49;1.67;;;1.67;;
13279;SDS011;6708;49.814;8.652;2023-05-07T12:08:18;2.40;;;2.00;;
13279;SDS011;6708;49.814;8.652;2023-05-07T12:10:48;1.83;;;1.73;;
13279;SDS011;6708;49.814;8.652;2023-05-07T12:13:18;1.50;;;1.48;;
13279;SDS011;6708;49.814;8.652;2023-05-07T12:15:50;1.60;;;1.58;;
13279;SDS011;6708;49.814;8.652;2023-05-07T12:18:19;1.80;;;1.67;;
13279;SDS011;6708;49.814;8.652;2023-05-07T12:20:48;1.60;;;1.50;;
13279;SDS011;6708;49.814;8.652;2023-05-07T12:23:16;1.73;;;1.63;;
13279;SDS011;6708;49.814;8.652;2023-05-07T12:25:45;1.80;;;1.73;;
13279;SDS011;6708;49.814;8.652;2023-05-07T12:28:14;2.22;;;1.88;;
13279;SDS011;6708;49.814;8.652;2023-05-07T12:30:44;1.38;;;1.38;;
13279;SDS011;6708;49.814;8.652;2023-05-07T12:33:18;1.63;;;1.40;;
13279;SDS011;6708;49.814;8.652;2023-05-07T12:35:47;1.73;;;1.23;;
13279;SDS011;6708;49.814;8.652;2023-05-07T12:38:16;1.95;;;1.63;;
13279;SDS011;6708;49.814;8.652;2023-05-07T12:40:46;4.22;;;1.48;;
13279;SDS011;6708;49.814;8.652;2023-05-07T12:43:16;1.48;;;1.48;;
13279;SDS011;6708;49.814;8.652;2023-05-07T12:45:46;3.17;;;1.50;;
13279;SDS011;6708;49.814;8.652;2023-05-07T12:48:18;1.52;;;1.48;;
13279;SDS011;6708;49.814;8.652;2023-05-07T12:50:48;3.03;;;2.08;;
13279;SDS011;6708;49.814;8.652;2023-05-07T12:53:19;2.30;;;2.20;;
13279;SDS011;6708;49.814;8.652;2023-05-07T12:55:50;3.35;;;1.33;;
13279;SDS011;6708;49.814;8.652;2023-05-07T12:58:19;1.60;;;1.50;;
13279;SDS011;6708;49.814;8.652;2023-05-07T13:00:49;2.08;;;1.98;;
13279;SDS011;6708;49.814;8.652;2023-05-07T13:03:25;1.50;;;1.40;;
13279;SDS011;6708;49.814;8.652;2023-05-07T13:05:54;3.50;;;1.80;;
13279;SDS011;6708;49.814;8.652;2023-05-07T13:08:25;1.48;;;1.38;;
13279;SDS011;6708;49.814;8.652;2023-05-07T13:10:54;2.83;;;2.72;;
13279;SDS011;6708;49.814;8.652;2023-05-07T13:13:23;1.48;;;1.38;;
13279;SDS011;6708;49.814;8.652;2023-05-07T13:15:51;1.50;;;1.50;;
13279;SDS011;6708;49.814;8.652;2023-05-07T13:18:19;1.52;;;1.42;;
13279;SDS011;6708;49.814;8.652;2023-05-07T13:20:50;1.60;;;1.50;;
13279;SDS011;6708;49.814;8.652;2023-05-07T13:23:19;3.22;;;1.70;;
13279;SDS011;6708;49.814;8.652;2023-05-07T13:25:47;3.10;;;1.23;;
13279;SDS011;6708;49.814;8.652;2023-05-07T13:28:17;1.35;;;1.35;;
13279;SDS011;6708;49.814;8.652;2023-05-07T13:30:46;1.35;;;1.35;;
13279;SDS011;6708;49.814;8.652;2023-05-07T13:33:16;1.48;;;1.38;;
13279;SDS011;6708;49.814;8.652;2023-05-07T13:35:45;1.48;;;1.45;;
13279;SDS011;6708;49.814;8.652;2023-05-07T13:38:16;2.58;;;1.30;;
13279;SDS011;6708;49.814;8.652;2023-05-07T13:40:44;1.35;;;1.35;;
13279;SDS011;6708;49.814;8.652;2023-05-07T13:43:13;1.45;;;1.45;;
13279;SDS011;6708;49.814;8.652;2023-05-07T13:45:42;1.20;;;1.20;;
13279;SDS011;6708;49.814;8.652;2023-05-07T13:48:10;1.27;;;1.20;;
13279;SDS011;6708;49.814;8.652;2023-05-07T13:50:39;1.38;;;1.30;;
13279;SDS011;6708;49.814;8.652;2023-05-07T13:53:07;1.55;;;1.55;;
13279;SDS011;6708;49.814;8.652;2023-05-07T13:55:38;1.30;;;1.30;;
13279;SDS011;6708;49.814;8.652;2023-05-07T13:58:07;1.58;;;1.58;;
13279;SDS011;6708;49.814;8.652;2023-05-07T14:00:38;1.40;;;1.40;;
13279;SDS011;6708;49.814;8.652;2023-05-07T14:03:06;2.15;;;1.95;;
13279;SDS011;6708;49.814;8.652;2023-05-07T14:05:35;1.95;;;1.85;;
13279;SDS011;6708;49.814;8.652;2023-05-07T14:08:03;1.35;;;1.35;;
13279;SDS011;6708;49.814;8.652;2023-05-07T14:10:33;1.55;;;1.55;;
13279;SDS011;6708;49.814;8.652;2023-05-07T14:13:03;1.70;;;1.70;;
13279;SDS011;6708;49.814;8.652;2023-05-07T14:15:32;1.33;;;1.33;;
13279;SDS011;6708;49.814;8.652;2023-05-07T14:18:02;1.35;;;1.27;;
13279;SDS011;6708;49.814;8.652;2023-05-07T14:20:30;1.13;;;1.13;;
13279;SDS011;6708;49.814;8.652;2023-05-07T14:23:01;3.08;;;1.40;;
13279;SDS011;6708;49.814;8.652;2023-05-07T14:25:30;1.20;;;1.20;;
13279;SDS011;6708;49.814;8.652;2023-05-07T14:27:58;1.40;;;1.40;;
13279;SDS011;6708;49.814;8.652;2023-05-07T14:30:29;1.65;;;1.55;;
13279;SDS011;6708;49.814;8.652;2023-05-07T14:32:58;2.15;;;1.83;;
13279;SDS011;6708;49.814;8.652;2023-05-07T14:35:27;2.50;;;1.47;;
13279;SDS011;6708;49.814;8.652;2023-05-07T14:37:55;1.70;;;1.60;;
13279;SDS011;6708;49.814;8.652;2023-05-07T14:40:24;1.30;;;1.20;;
13279;SDS011;6708;49.814;8.652;2023-05-07T14:42:52;1.30;;;1.30;;
13279;SDS011;6708;49.814;8.652;2023-05-07T14:45:22;1.50;;;1.50;;
13279;SDS011;6708;49.814;8.652;2023-05-07T14:47:53;1.40;;;1.30;;
13279;SDS011;6708;49.814;8.652;2023-05-07T14:50:21;1.03;;;1.03;;
13279;SDS011;6708;49.814;8.652;2023-05-07T14:52:50;1.23;;;1.13;;
13279;SDS011;6708;49.814;8.652;2023-05-07T14:55:18;1.07;;;1.07;;
13279;SDS011;6708;49.814;8.652;2023-05-07T14:57:47;1.37;;;1.30;;
13279;SDS011;6708;49.814;8.652;2023-05-07T15:00:15;1.23;;;1.23;;
13279;SDS011;6708;49.814;8.652;2023-05-07T15:02:44;1.90;;;1.33;;
13279;SDS011;6708;49.814;8.652;2023-05-07T15:05:15;1.70;;;1.60;;
13279;SDS011;6708;49.814;8.652;2023-05-07T15:07:44;1.40;;;1.30;;
13279;SDS011;6708;49.814;8.652;2023-05-07T15:10:12;2.80;;;1.80;;
13279;SDS011;6708;49.814;8.652;2023-05-07T15:12:41;1.80;;;1.40;;
13279;SDS011;6708;49.814;8.652;2023-05-07T15:15:10;1.80;;;1.53;;
13279;SDS011;6708;49.814;8.652;2023-05-07T15:17:38;2.13;;;1.57;;
13279;SDS011;6708;49.814;8.652;2023-05-07T15:20:07;1.40;;;1.40;;
13279;SDS011;6708;49.814;8.652;2023-05-07T15:22:38;1.37;;;1.37;;
13279;SDS011;6708;49.814;8.652;2023-05-07T15:25:07;1.53;;;1.43;;
13279;SDS011;6708;49.814;8.652;2023-05-07T15:27:36;1.40;;;1.30;;
13279;SDS011;6708;49.814;8.652;2023-05-07T15:30:05;1.43;;;1.40;;
13279;SDS011;6708;49.814;8.652;2023-05-07T15:32:35;1.50;;;1.40;;